Time;durP1;ratioP1;P1;durP2;ratioP2;P2;SDS_P1;SDS_P2;PMS_P1;PMS_P2;Temp;Humidity;BMP_temperature;BMP_pressure;BME280_temperature;BME280_humidity;BME280_pressure;Samples;Min_cycle;Max_cycle;Signal;HPM_P1;HPM_P2
2024/04/18 00:01:37;;;;;;;8.70;5.60;;;5.10;99.90;;;;;;5385421;26;20369;-73
2024/04/18 00:04:05;;;;;;;13.38;6.80;;;5.10;99.90;;;;;;5384043;26;20466;-72
2024/04/18 00:06:32;;;;;;;9.05;5.90;;;5.10;99.90;;;;;;5383162;26;20010;-72
2024/04/18 00:09:00;;;;;;;8.98;6.43;;;5.10;99.90;;;;;;5384330;26;20302;-73
2024/04/18 00:11:26;;;;;;;8.68;6.03;;;5.10;99.90;;;;;;5350578;26;20058;-73
2024/04/18 00:13:54;;;;;;;12.25;6.05;;;5.10;99.90;;;;;;5351743;26;20838;-73
2024/04/18 00:16:20;;;;;;;11.18;6.25;;;5.10;99.90;;;;;;5352711;26;20438;-74
2024/04/18 00:18:51;;;;;;;11.65;6.60;;;5.00;99.90;;;;;;5351738;26;20009;-73
2024/04/18 00:21:17;;;;;;;10.75;6.45;;;5.00;99.90;;;;;;5350665;26;20065;-74
2024/04/18 00:23:46;;;;;;;10.30;6.07;;;5.00;99.90;;;;;;5351006;26;19997;-73
2024/04/18 00:26:11;;;;;;;13.90;7.65;;;5.00;99.90;;;;;;5351294;26;20025;-73
2024/04/18 00:28:40;;;;;;;14.45;6.55;;;5.00;99.90;;;;;;5349943;26;20370;-73
2024/04/18 00:31:06;;;;;;;9.48;6.40;;;4.90;99.90;;;;;;5348697;26;20033;-73
2024/04/18 00:33:34;;;;;;;10.73;6.35;;;5.00;99.90;;;;;;5346919;26;20001;-72
2024/04/18 00:36:05;;;;;;;10.57;6.45;;;5.00;99.90;;;;;;5377335;26;20551;-74
2024/04/18 00:38:33;;;;;;;12.18;6.57;;;5.00;99.90;;;;;;5384113;26;20328;-72
2024/04/18 00:40:59;;;;;;;11.15;7.10;;;5.00;99.90;;;;;;5385193;26;20103;-72
2024/04/18 00:43:28;;;;;;;9.23;6.78;;;5.00;99.90;;;;;;5382168;26;20000;-71
2024/04/18 00:45:56;;;;;;;9.27;6.90;;;5.00;99.90;;;;;;5378698;26;19997;-72
2024/04/18 00:48:25;;;;;;;13.52;6.57;;;5.00;99.90;;;;;;5378234;26;20081;-73
2024/04/18 00:50:53;;;;;;;11.63;6.78;;;5.00;99.90;;;;;;5378789;26;20007;-72
2024/04/18 00:53:26;;;;;;;8.98;6.63;;;5.00;99.90;;;;;;5379118;26;20073;-73
2024/04/18 00:55:53;;;;;;;9.98;6.97;;;5.10;99.90;;;;;;5383037;26;20014;-72
2024/04/18 00:58:21;;;;;;;13.73;6.95;;;5.10;99.90;;;;;;5383058;26;20043;-73
2024/04/18 01:00:49;;;;;;;10.15;6.32;;;5.10;99.90;;;;;;5384375;26;20081;-74
2024/04/18 01:03:18;;;;;;;11.40;6.95;;;5.20;99.90;;;;;;5387774;26;20000;-73
2024/04/18 01:05:44;;;;;;;10.57;6.65;;;5.20;99.90;;;;;;5382467;26;20006;-74
2024/04/18 01:08:12;;;;;;;12.68;7.20;;;5.20;99.90;;;;;;5382356;26;20002;-73
2024/04/18 01:10:41;;;;;;;13.55;6.38;;;5.20;99.90;;;;;;5381686;26;20032;-74
2024/04/18 01:13:09;;;;;;;10.27;6.88;;;5.20;99.90;;;;;;5382016;26;20042;-71
2024/04/18 01:15:35;;;;;;;9.40;6.68;;;5.20;99.90;;;;;;5381279;26;20004;-72
2024/04/18 01:18:03;;;;;;;10.93;6.97;;;5.30;99.90;;;;;;5382096;26;20407;-74
2024/04/18 01:20:30;;;;;;;11.23;6.35;;;5.30;99.90;;;;;;5381723;26;20086;-72
2024/04/18 01:22:59;;;;;;;10.00;6.97;;;5.30;99.90;;;;;;5381913;26;20007;-73
2024/04/18 01:25:25;;;;;;;13.77;7.65;;;5.20;99.90;;;;;;5383311;26;20003;-73
2024/04/18 01:27:56;;;;;;;11.13;7.00;;;5.20;99.90;;;;;;5382403;26;20000;-73
2024/04/18 01:30:22;;;;;;;9.32;5.25;;;5.20;99.90;;;;;;5382897;26;20078;-73
2024/04/18 01:32:50;;;;;;;8.07;4.40;;;5.20;99.90;;;;;;5382083;26;20015;-74
2024/04/18 01:35:16;;;;;;;6.03;3.90;;;5.30;99.90;;;;;;5381909;26;19996;-73
2024/04/18 01:37:44;;;;;;;7.10;4.20;;;5.20;99.90;;;;;;5378988;26;20008;-73
2024/04/18 01:40:10;;;;;;;6.70;3.83;;;5.20;99.90;;;;;;5382193;26;20010;-72
2024/04/18 01:42:39;;;;;;;7.25;3.78;;;5.20;99.90;;;;;;5381218;26;20004;-74
2024/04/18 01:45:11;;;;;;;8.52;3.38;;;5.20;99.90;;;;;;5381669;26;19996;-73
2024/04/18 01:47:37;;;;;;;6.22;3.00;;;5.30;99.90;;;;;;5381757;26;20034;-73
2024/04/18 01:50:05;;;;;;;4.95;3.10;;;5.30;99.90;;;;;;5381763;26;20401;-72
2024/04/18 01:52:31;;;;;;;5.82;3.13;;;5.30;99.90;;;;;;5381983;26;20445;-72
2024/04/18 01:54:59;;;;;;;5.22;2.83;;;5.30;99.90;;;;;;5390348;26;19996;-73
2024/04/18 01:57:25;;;;;;;4.65;2.40;;;5.40;99.90;;;;;;5388916;26;20000;-73
2024/04/18 01:59:54;;;;;;;4.47;2.40;;;5.30;99.90;;;;;;5388959;26;20011;-72
2024/04/18 02:02:23;;;;;;;3.45;2.22;;;5.40;99.90;;;;;;5387094;26;20052;-73
2024/04/18 02:04:52;;;;;;;3.17;2.55;;;5.40;99.90;;;;;;5382204;26;20396;-74
2024/04/18 02:07:17;;;;;;;6.68;2.42;;;5.30;99.90;;;;;;5381765;26;20038;-72
2024/04/18 02:09:46;;;;;;;4.30;2.58;;;5.30;99.90;;;;;;5368911;26;19997;-74
2024/04/18 02:12:12;;;;;;;4.07;2.60;;;5.30;99.90;;;;;;5346779;26;20091;-73
2024/04/18 02:14:40;;;;;;;9.57;2.85;;;5.40;99.90;;;;;;5346268;26;20017;-72
2024/04/18 02:17:06;;;;;;;5.20;2.55;;;5.40;99.90;;;;;;5346021;26;20449;-72
2024/04/18 02:19:37;;;;;;;5.95;2.63;;;5.40;99.90;;;;;;5374180;26;20019;-73
2024/04/18 02:22:03;;;;;;;3.92;2.20;;;5.40;99.90;;;;;;5380707;26;20040;-73
2024/04/18 02:24:31;;;;;;;2.65;2.30;;;5.40;99.90;;;;;;5381033;26;20317;-73
2024/04/18 02:26:57;;;;;;;4.90;2.75;;;5.40;99.90;;;;;;5380215;26;20118;-74
2024/04/18 02:29:26;;;;;;;2.72;2.33;;;5.40;99.90;;;;;;5380653;26;20008;-72
2024/04/18 02:31:51;;;;;;;3.38;2.20;;;5.30;99.90;;;;;;5380925;26;19996;-73
2024/04/18 02:34:20;;;;;;;4.07;2.88;;;5.30;99.90;;;;;;5380878;26;20011;-73
2024/04/18 02:36:48;;;;;;;4.32;2.72;;;5.30;99.90;;;;;;5380616;26;20065;-72
2024/04/18 02:39:16;;;;;;;4.32;2.47;;;5.30;99.90;;;;;;5380701;26;20012;-73
2024/04/18 02:41:42;;;;;;;5.00;2.80;;;5.30;99.90;;;;;;5381493;26;20020;-73
2024/04/18 02:44:10;;;;;;;4.85;2.72;;;5.40;99.90;;;;;;5383646;26;20008;-73
2024/04/18 02:46:36;;;;;;;5.47;2.90;;;5.40;99.90;;;;;;5382679;26;20004;-75
2024/04/18 02:49:05;;;;;;;4.47;2.40;;;5.40;99.90;;;;;;5381296;26;20095;-74
2024/04/18 02:51:30;;;;;;;9.13;2.80;;;5.50;99.90;;;;;;5380815;26;19996;-74
2024/04/18 02:54:01;;;;;;;4.05;2.70;;;5.50;99.90;;;;;;5380804;26;20019;-73
2024/04/18 02:56:27;;;;;;;7.40;3.40;;;5.40;99.90;;;;;;5381071;26;20001;-73
2024/04/18 02:58:56;;;;;;;4.43;2.90;;;5.40;99.90;;;;;;5380796;26;19996;-73
2024/04/18 03:01:21;;;;;;;3.63;2.72;;;5.40;99.90;;;;;;5381203;26;20064;-74
2024/04/18 03:03:50;;;;;;;3.55;2.80;;;5.40;99.90;;;;;;5380613;26;20000;-72
2024/04/18 03:06:15;;;;;;;4.03;3.10;;;5.40;99.90;;;;;;5380879;26;20478;-72
2024/04/18 03:08:45;;;;;;;3.22;2.55;;;5.40;99.90;;;;;;5380654;26;20000;-73
2024/04/18 03:11:13;;;;;;;6.28;3.78;;;5.50;99.90;;;;;;5381090;26;19996;-74
2024/04/18 03:13:42;;;;;;;4.72;3.20;;;5.40;99.90;;;;;;5380993;26;20007;-73
2024/04/18 03:16:08;;;;;;;3.30;3.00;;;5.40;99.90;;;;;;5380819;26;20447;-73
2024/04/18 03:18:36;;;;;;;6.53;3.40;;;5.40;99.90;;;;;;5380343;26;20000;-73
2024/04/18 03:21:02;;;;;;;6.32;3.20;;;5.40;99.90;;;;;;5380709;26;20091;-73
2024/04/18 03:23:30;;;;;;;4.25;3.30;;;5.50;99.90;;;;;;5380616;26;20004;-73
2024/04/18 03:25:56;;;;;;;5.30;2.83;;;5.40;99.90;;;;;;5379284;26;20024;-74
2024/04/18 03:28:27;;;;;;;6.03;3.80;;;5.40;99.90;;;;;;5380711;26;20000;-72
2024/04/18 03:30:53;;;;;;;5.07;3.50;;;5.40;99.90;;;;;;5381504;26;20018;-74
2024/04/18 03:33:21;;;;;;;4.82;3.30;;;5.40;99.90;;;;;;5379700;26;20336;-73
2024/04/18 03:35:47;;;;;;;5.28;3.53;;;5.30;99.90;;;;;;5381106;26;20010;-73
2024/04/18 03:38:16;;;;;;;5.78;3.38;;;5.30;99.90;;;;;;5380678;26;20441;-72
2024/04/18 03:40:44;;;;;;;4.60;3.35;;;5.30;99.90;;;;;;5380679;26;19992;-74
2024/04/18 03:43:10;;;;;;;5.38;3.80;;;5.30;99.90;;;;;;5380995;26;20000;-74
2024/04/18 03:45:41;;;;;;;7.18;4.10;;;5.20;99.90;;;;;;5381486;26;20073;-74
2024/04/18 03:48:09;;;;;;;7.78;4.20;;;5.20;99.90;;;;;;5382175;26;20026;-71
2024/04/18 03:50:35;;;;;;;7.72;4.40;;;5.20;99.90;;;;;;5382391;26;19997;-72
2024/04/18 03:53:03;;;;;;;5.60;4.40;;;5.20;99.90;;;;;;5382296;26;19996;-73
2024/04/18 03:55:29;;;;;;;7.95;5.00;;;5.20;99.90;;;;;;5369138;26;20000;-75
2024/04/18 03:57:57;;;;;;;5.22;4.32;;;5.20;99.90;;;;;;5345132;26;20021;-73
2024/04/18 04:00:24;;;;;;;7.72;4.55;;;5.10;99.90;;;;;;5345114;26;19993;-74
2024/04/18 04:02:55;;;;;;;7.15;4.80;;;5.10;99.90;;;;;;5345181;26;20032;-73
2024/04/18 04:05:20;;;;;;;6.85;4.63;;;5.10;99.90;;;;;;5396947;21;20315;-73
2024/04/18 04:07:49;;;;;;;5.63;4.95;;;5.20;99.90;;;;;;5450787;26;20577;-75
2024/04/18 04:10:15;;;;;;;5.95;5.20;;;5.10;99.90;;;;;;5451111;26;20443;-74
2024/04/18 04:12:43;;;;;;;8.45;5.05;;;5.10;99.90;;;;;;5451336;26;20017;-74
2024/04/18 04:15:09;;;;;;;8.00;6.03;;;5.10;99.90;;;;;;5451214;26;20457;-75
2024/04/18 04:17:39;;;;;;;8.48;5.78;;;5.10;99.90;;;;;;5450423;26;20079;-74
2024/04/18 04:20:07;;;;;;;8.45;6.15;;;5.10;99.90;;;;;;5450245;26;20353;-75
2024/04/18 04:22:36;;;;;;;10.00;5.97;;;5.10;99.90;;;;;;5450720;26;20017;-73
2024/04/18 04:25:02;;;;;;;10.32;7.25;;;5.00;99.90;;;;;;5451104;26;19999;-75
2024/04/18 04:27:30;;;;;;;9.07;6.55;;;5.00;99.90;;;;;;5450765;26;20495;-73
2024/04/18 04:29:58;;;;;;;9.95;7.50;;;4.90;99.90;;;;;;5450327;26;20003;-76
2024/04/18 04:32:24;;;;;;;11.00;7.18;;;4.90;99.90;;;;;;5450954;26;20011;-76
2024/04/18 04:34:53;;;;;;;10.10;7.38;;;5.00;99.90;;;;;;5450813;26;20014;-76
2024/04/18 04:37:22;;;;;;;9.50;7.22;;;4.90;99.90;;;;;;5452733;26;20002;-77
2024/04/18 04:39:50;;;;;;;10.98;8.35;;;4.90;99.90;;;;;;5455278;26;19999;-74
2024/04/18 04:42:16;;;;;;;9.85;7.90;;;4.90;99.90;;;;;;5455765;26;20003;-72
2024/04/18 04:44:44;;;;;;;15.63;9.38;;;4.90;99.90;;;;;;5454858;26;20018;-76
2024/04/18 04:47:10;;;;;;;12.40;8.82;;;4.90;99.90;;;;;;5454424;26;19999;-77
2024/04/18 04:49:38;;;;;;;13.00;8.88;;;5.00;99.90;;;;;;5453831;26;20053;-74
2024/04/18 04:52:06;;;;;;;14.13;8.45;;;5.00;99.90;;;;;;5458230;26;19995;-73
2024/04/18 04:54:37;;;;;;;11.90;8.27;;;5.20;99.90;;;;;;5458530;26;20436;-75
2024/04/18 04:57:03;;;;;;;14.20;7.90;;;5.30;99.90;;;;;;5453791;26;20003;-75
2024/04/18 04:59:32;;;;;;;13.00;8.30;;;5.40;99.90;;;;;;5426967;26;20053;-74
2024/04/18 05:01:57;;;;;;;11.80;8.68;;;5.50;99.90;;;;;;5453773;26;20035;-74
2024/04/18 05:04:26;;;;;;;12.18;8.18;;;5.50;99.90;;;;;;5440872;26;20052;-75
2024/04/18 05:06:51;;;;;;;11.10;8.07;;;5.60;99.90;;;;;;5443826;26;20009;-75
2024/04/18 05:09:23;;;;;;;11.70;9.32;;;5.60;99.90;;;;;;5453669;26;20015;-75
2024/04/18 05:11:51;;;;;;;11.35;8.65;;;5.60;99.90;;;;;;5453543;26;20017;-75
2024/04/18 05:14:22;;;;;;;13.27;8.40;;;5.70;99.90;;;;;;5453469;26;20017;-74
2024/04/18 05:16:48;;;;;;;12.32;8.77;;;5.80;99.90;;;;;;5443475;26;19999;-72
2024/04/18 05:19:16;;;;;;;13.65;9.07;;;5.80;99.90;;;;;;5451434;26;20559;-74
2024/04/18 05:21:43;;;;;;;13.35;9.63;;;5.90;99.90;;;;;;5437431;26;20113;-73
2024/04/18 05:24:11;;;;;;;12.38;8.52;;;5.80;99.90;;;;;;5447970;26;20011;-73
2024/04/18 05:26:38;;;;;;;11.98;8.98;;;5.80;99.90;;;;;;5452480;26;19999;-72
2024/04/18 05:31:53;;;;;;;12.05;8.82;;;5.90;99.90;;;;;;5448774;26;20512;-72
2024/04/18 05:34:22;;;;;;;15.38;9.70;;;5.90;99.90;;;;;;5453375;26;22906;-75
2024/04/18 05:36:50;;;;;;;12.85;9.57;;;6.00;99.90;;;;;;5444450;26;20014;-71
2024/04/18 05:39:18;;;;;;;14.00;9.57;;;5.90;99.90;;;;;;5446904;26;20007;-72
2024/04/18 05:41:47;;;;;;;13.25;9.68;;;6.00;99.90;;;;;;5444282;26;19999;-74
2024/04/18 05:44:18;;;;;;;11.68;8.93;;;5.90;99.90;;;;;;5450643;26;20467;-73
2024/04/18 05:46:46;;;;;;;11.55;9.32;;;5.90;99.90;;;;;;5454065;26;20113;-72
2024/04/18 05:49:15;;;;;;;12.85;8.90;;;5.90;99.90;;;;;;5451342;26;20036;-74
2024/04/18 05:51:44;;;;;;;13.10;8.85;;;5.90;99.90;;;;;;5444021;26;20006;-72
2024/04/18 05:54:12;;;;;;;14.90;9.25;;;6.00;99.90;;;;;;5451669;26;20040;-74
2024/04/18 05:56:42;;;;;;;11.65;9.20;;;6.00;99.90;;;;;;5455728;26;19994;-72
2024/04/18 05:59:10;;;;;;;12.75;8.98;;;6.10;99.90;;;;;;5460178;26;20121;-73
2024/04/18 06:01:41;;;;;;;13.50;8.95;;;6.10;99.90;;;;;;5462580;26;19995;-73
2024/04/18 06:04:09;;;;;;;10.48;8.25;;;6.20;99.90;;;;;;5455793;26;20019;-73
2024/04/18 06:06:38;;;;;;;12.85;8.05;;;6.20;99.90;;;;;;5443230;26;20006;-72
2024/04/18 06:09:04;;;;;;;12.50;8.07;;;6.30;99.90;;;;;;5435585;26;20068;-73
2024/04/18 06:11:35;;;;;;;10.35;8.40;;;6.30;99.90;;;;;;5432397;26;20340;-73
2024/04/18 06:14:04;;;;;;;11.07;8.43;;;6.40;99.90;;;;;;5432699;26;20769;-74
2024/04/18 06:16:34;;;;;;;10.57;8.40;;;6.40;99.90;;;;;;5433066;26;19999;-73
2024/04/18 06:19:05;;;;;;;13.68;8.30;;;6.50;99.90;;;;;;5432447;26;20000;-74
2024/04/18 06:21:33;;;;;;;12.52;8.98;;;6.50;99.90;;;;;;5431421;26;20000;-74
2024/04/18 06:24:02;;;;;;;11.32;8.95;;;6.50;99.90;;;;;;5425100;26;20000;-73
2024/04/18 06:26:30;;;;;;;15.70;9.13;;;6.60;99.90;;;;;;5470637;26;19991;-73
2024/04/18 06:28:58;;;;;;;11.25;8.73;;;6.60;99.90;;;;;;5444816;26;20018;-73
2024/04/18 06:31:27;;;;;;;11.77;9.00;;;6.50;99.90;;;;;;5476785;26;20015;-73
2024/04/18 06:33:55;;;;;;;10.13;8.40;;;6.40;99.90;;;;;;5477876;26;20006;-73
2024/04/18 06:36:26;;;;;;;12.13;9.68;;;6.40;99.90;;;;;;5478242;26;20045;-72
2024/04/18 06:38:54;;;;;;;13.20;9.13;;;6.40;99.90;;;;;;5475906;26;20007;-74
2024/04/18 06:41:23;;;;;;;12.65;8.93;;;6.40;99.90;;;;;;5457853;26;20126;-73
2024/04/18 06:43:51;;;;;;;14.52;8.55;;;6.50;99.90;;;;;;5453770;26;19994;-73
2024/04/18 06:46:19;;;;;;;17.10;8.38;;;6.50;99.90;;;;;;5440304;26;19999;-73
2024/04/18 06:48:48;;;;;;;9.27;6.90;;;6.60;99.90;;;;;;5416339;26;20000;-75
2024/04/18 06:51:16;;;;;;;9.77;7.93;;;6.60;99.90;;;;;;5421424;26;20035;-73
2024/04/18 06:53:47;;;;;;;14.23;8.43;;;6.60;99.90;;;;;;5433930;26;20011;-74
2024/04/18 06:56:16;;;;;;;11.75;6.88;;;6.70;99.90;;;;;;5416958;26;19996;-74
2024/04/18 06:58:45;;;;;;;7.75;5.97;;;6.80;99.90;;;;;;5457648;26;19998;-73
2024/04/18 07:01:13;;;;;;;6.38;5.28;;;6.80;99.90;;;;;;5452250;26;19995;-73
2024/04/18 07:03:41;;;;;;;5.95;5.10;;;6.80;99.90;;;;;;5452353;26;20332;-73
2024/04/18 07:06:11;;;;;;;6.53;5.57;;;6.80;99.90;;;;;;5457914;26;19991;-74
2024/04/18 07:08:39;;;;;;;7.35;5.03;;;6.90;99.90;;;;;;5451997;26;20385;-75
2024/04/18 07:11:10;;;;;;;4.78;4.15;;;6.90;99.90;;;;;;5420797;26;20003;-74
2024/04/18 07:13:39;;;;;;;5.72;4.63;;;7.00;99.90;;;;;;5431433;26;20097;-73
2024/04/18 07:16:07;;;;;;;7.45;5.05;;;7.10;99.90;;;;;;5434734;26;20114;-72
2024/04/18 07:18:36;;;;;;;7.35;5.55;;;7.20;99.90;;;;;;5420963;26;20003;-72
2024/04/18 07:21:05;;;;;;;10.00;5.40;;;7.20;99.90;;;;;;5416277;26;20073;-73
2024/04/18 07:23:33;;;;;;;7.15;5.45;;;7.30;99.90;;;;;;5416178;26;20000;-72
2024/04/18 07:26:01;;;;;;;6.63;5.25;;;7.40;99.90;;;;;;5416394;26;19996;-72
2024/04/18 07:28:34;;;;;;;5.85;4.40;;;7.40;99.90;;;;;;5416123;26;19999;-72
2024/04/18 07:31:03;;;;;;;5.32;4.57;;;7.50;99.90;;;;;;5476793;26;20070;-72
2024/04/18 07:33:32;;;;;;;6.07;5.10;;;7.50;99.90;;;;;;5487324;26;20014;-72
2024/04/18 07:36:01;;;;;;;5.70;4.70;;;7.50;99.90;;;;;;5486606;26;20005;-73
2024/04/18 07:38:30;;;;;;;7.00;5.05;;;7.70;99.90;;;;;;5487540;26;19998;-72
2024/04/18 07:40:56;;;;;;;6.18;5.00;;;7.70;99.90;;;;;;5487822;26;20090;-72
2024/04/18 07:43:24;;;;;;;7.95;4.80;;;7.80;99.90;;;;;;5488089;26;20411;-72
2024/04/18 07:45:55;;;;;;;5.88;4.93;;;7.90;99.90;;;;;;5477560;26;20017;-73
2024/04/18 07:48:23;;;;;;;7.07;5.22;;;8.00;99.90;;;;;;5451247;26;20001;-73
2024/04/18 07:50:52;;;;;;;9.25;5.10;;;7.90;99.90;;;;;;5446616;26;20017;-72
2024/04/18 07:53:20;;;;;;;8.25;5.25;;;7.90;99.90;;;;;;5433519;26;20028;-74
2024/04/18 07:55:49;;;;;;;8.02;5.80;;;8.00;99.90;;;;;;5446904;26;20031;-72
2024/04/18 07:58:17;;;;;;;7.55;5.90;;;8.10;99.90;;;;;;5434823;26;20053;-74
2024/04/18 08:00:45;;;;;;;8.52;5.82;;;8.10;99.90;;;;;;5455018;26;19995;-74
2024/04/18 08:03:16;;;;;;;6.53;5.88;;;8.10;99.90;;;;;;5451881;26;19999;-73
2024/04/18 08:05:45;;;;;;;7.13;6.35;;;8.10;99.90;;;;;;5451340;26;19995;-72
2024/04/18 08:08:13;;;;;;;8.10;6.32;;;7.90;99.90;;;;;;5450746;26;19995;-71
2024/04/18 08:10:42;;;;;;;11.90;6.93;;;7.70;99.90;;;;;;5422118;26;20000;-71
2024/04/18 08:13:10;;;;;;;11.98;6.65;;;7.70;99.90;;;;;;5413863;26;20089;-74
2024/04/18 08:15:40;;;;;;;11.80;6.35;;;7.60;99.90;;;;;;5413996;26;20032;-71
2024/04/18 08:18:09;;;;;;;8.80;6.15;;;7.80;99.90;;;;;;5414940;26;19996;-73
2024/04/18 08:20:40;;;;;;;9.05;5.72;;;7.80;99.90;;;;;;5415136;26;20479;-72
2024/04/18 08:23:08;;;;;;;6.35;5.43;;;7.80;99.90;;;;;;5421853;26;20038;-74
2024/04/18 08:25:37;;;;;;;5.18;4.40;;;7.80;99.90;;;;;;5446588;26;19999;-73
2024/04/18 08:28:06;;;;;;;5.72;4.50;;;7.80;99.90;;;;;;5450587;26;20365;-73
2024/04/18 08:30:34;;;;;;;6.63;4.90;;;7.70;99.90;;;;;;5422851;26;20456;-74
2024/04/18 08:33:03;;;;;;;7.03;4.03;;;7.60;99.90;;;;;;5442162;26;20074;-73
2024/04/18 08:35:31;;;;;;;14.00;3.88;;;7.80;99.90;;;;;;5445180;26;20011;-74
2024/04/18 08:38:02;;;;;;;5.47;4.03;;;8.00;99.90;;;;;;5429417;26;20048;-72
2024/04/18 08:40:31;;;;;;;7.78;4.65;;;8.20;99.90;;;;;;5450278;26;20102;-73
2024/04/18 08:42:59;;;;;;;7.18;4.72;;;8.20;99.90;;;;;;5424710;26;20000;-74
2024/04/18 08:45:33;;;;;;;6.95;4.15;;;8.20;99.90;;;;;;5414868;26;19996;-72
2024/04/18 08:48:02;;;;;;;7.63;4.43;;;8.00;99.90;;;;;;5414359;26;20068;-73
2024/04/18 08:50:33;;;;;;;6.05;3.33;;;7.90;99.90;;;;;;5414985;26;20060;-72
2024/04/18 08:53:06;;;;;;;6.45;3.97;;;8.00;99.90;;;;;;5413406;26;19999;-72
2024/04/18 08:55:36;;;;;;;4.90;3.33;;;8.10;99.90;;;;;;5447907;26;19999;-72
2024/04/18 08:58:09;;;;;;;3.90;3.20;;;8.30;99.90;;;;;;5450283;26;19995;-71
2024/04/18 09:00:38;;;;;;;5.05;3.53;;;8.50;99.90;;;;;;5450999;26;20351;-73
2024/04/18 09:03:07;;;;;;;4.65;3.33;;;8.60;99.90;;;;;;5452180;26;19994;-74
2024/04/18 09:05:35;;;;;;;3.85;2.92;;;8.90;99.90;;;;;;5451689;26;20432;-73
2024/04/18 09:08:09;;;;;;;5.95;3.78;;;9.00;99.90;;;;;;5450574;26;19995;-74
2024/04/18 09:10:38;;;;;;;5.10;3.20;;;9.10;99.90;;;;;;5450397;26;19995;-74
2024/04/18 09:13:06;;;;;;;6.00;3.88;;;9.20;99.90;;;;;;5449986;26;20071;-74
2024/04/18 09:15:35;;;;;;;5.15;3.70;;;9.30;99.90;;;;;;5450405;26;20005;-74
2024/04/18 09:18:04;;;;;;;6.03;3.38;;;9.60;99.90;;;;;;5449852;26;19999;-73
2024/04/18 09:20:32;;;;;;;6.70;3.53;;;9.90;99.90;;;;;;5450373;26;20007;-78
2024/04/18 09:23:00;;;;;;;5.22;3.58;;;11.30;99.90;;;;;;5451155;26;20072;-74
2024/04/18 09:25:32;;;;;;;4.13;3.25;;;13.20;99.90;;;;;;5453866;26;20010;-75
2024/04/18 09:28:01;;;;;;;4.90;3.15;;;15.60;99.90;;;;;;5454133;26;20075;-75
2024/04/18 09:30:29;;;;;;;5.22;3.13;;;17.30;99.90;;;;;;5467447;26;19999;-75
2024/04/18 09:33:00;;;;;;;3.80;3.25;;;19.10;99.90;;;;;;5453951;26;19995;-73
2024/04/18 09:35:33;;;;;;;3.47;2.80;;;20.50;98.00;;;;;;5453970;26;19995;-76
2024/04/18 09:38:02;;;;;;;6.13;3.17;;;19.90;95.20;;;;;;5453888;26;20106;-74
2024/04/18 09:40:35;;;;;;;5.15;3.28;;;21.00;92.60;;;;;;5452301;26;20076;-73
2024/04/18 09:43:11;;;;;;;6.40;3.03;;;20.90;89.00;;;;;;5453767;26;20351;-76
2024/04/18 09:45:47;;;;;;;8.75;3.63;;;18.70;85.50;;;;;;5454039;26;19995;-75
2024/04/18 09:48:15;;;;;;;4.18;2.88;;;17.10;88.10;;;;;;5453831;26;19995;-76
2024/04/18 09:50:45;;;;;;;4.72;3.45;;;17.90;89.60;;;;;;5453656;26;20089;-76
2024/04/18 09:53:11;;;;;;;3.53;2.80;;;19.70;83.60;;;;;;5454361;26;20034;-77
2024/04/18 09:55:44;;;;;;;4.70;3.20;;;20.00;79.40;;;;;;5454202;26;20010;-76
2024/04/18 09:58:12;;;;;;;4.47;3.45;;;20.50;78.70;;;;;;5453981;26;19998;-77
2024/04/18 10:00:41;;;;;;;4.93;2.72;;;22.00;73.20;;;;;;5432796;26;19999;-75
2024/04/18 10:03:11;;;;;;;3.58;2.90;;;21.80;72.20;;;;;;5428862;26;20000;-77
2024/04/18 10:05:44;;;;;;;4.97;3.15;;;21.30;72.00;;;;;;5435360;21;20023;-73
2024/04/18 10:08:13;;;;;;;3.42;3.10;;;19.20;71.00;;;;;;5426077;26;20439;-73
2024/04/18 10:10:45;;;;;;;3.08;2.78;;;17.00;75.90;;;;;;5422142;26;20019;-73
2024/04/18 10:13:14;;;;;;;2.83;2.17;;;14.70;83.60;;;;;;5421727;26;20006;-74
2024/04/18 10:15:39;;;;;;;2.33;2.03;;;12.80;90.80;;;;;;5421271;26;20042;-72
2024/04/18 10:18:15;;;;;;;3.75;2.55;;;11.10;95.40;;;;;;5422462;26;20007;-71
2024/04/18 10:20:44;;;;;;;5.80;3.10;;;9.90;99.90;;;;;;5421546;26;20020;-73
2024/04/18 10:23:14;;;;;;;3.97;3.00;;;9.10;99.90;;;;;;5420659;26;19999;-71
2024/04/18 10:25:47;;;;;;;5.93;3.15;;;8.50;99.90;;;;;;5421915;26;20327;-73
2024/04/18 10:28:23;;;;;;;4.82;2.88;;;8.20;99.90;;;;;;5421699;26;20031;-72
2024/04/18 10:30:52;;;;;;;7.13;3.17;;;8.10;99.90;;;;;;5423866;26;19991;-74
2024/04/18 10:33:27;;;;;;;6.55;3.58;;;8.10;99.90;;;;;;5420931;26;20000;-73
2024/04/18 10:35:56;;;;;;;5.22;3.78;;;7.90;99.90;;;;;;5420223;26;19991;-72
2024/04/18 10:38:28;;;;;;;6.50;4.05;;;7.70;99.90;;;;;;5420774;26;19996;-73
2024/04/18 10:41:00;;;;;;;5.43;3.95;;;7.60;99.90;;;;;;5421185;26;19995;-72
2024/04/18 10:43:30;;;;;;;5.15;4.32;;;7.60;99.90;;;;;;5420574;26;20010;-73
2024/04/18 10:46:00;;;;;;;5.35;4.00;;;7.60;99.90;;;;;;5420698;26;19995;-72
2024/04/18 10:48:28;;;;;;;6.22;3.55;;;7.80;99.90;;;;;;5420168;26;19996;-73
2024/04/18 10:50:57;;;;;;;6.38;3.70;;;8.00;99.90;;;;;;5420413;26;20012;-72
2024/04/18 10:53:25;;;;;;;5.65;3.67;;;8.10;99.90;;;;;;5417556;26;20024;-73
2024/04/18 10:55:54;;;;;;;7.20;3.72;;;8.40;99.90;;;;;;5401403;26;20702;-74
2024/04/18 10:58:25;;;;;;;5.70;2.60;;;8.70;99.90;;;;;;5394230;26;20014;-74
2024/04/18 11:00:58;;;;;;;3.28;2.60;;;8.80;99.90;;;;;;5416485;26;19995;-73
2024/04/18 11:03:27;;;;;;;4.65;2.78;;;9.20;99.90;;;;;;5385156;26;20000;-74
2024/04/18 11:05:55;;;;;;;4.15;2.40;;;9.60;99.90;;;;;;5414149;26;20073;-74
2024/04/18 11:08:24;;;;;;;2.30;2.10;;;10.30;99.90;;;;;;5413721;26;20456;-75
2024/04/18 11:10:53;;;;;;;4.57;2.78;;;11.00;99.90;;;;;;5406567;26;19996;-73
2024/04/18 11:13:24;;;;;;;4.80;2.92;;;11.50;99.90;;;;;;5380956;26;19996;-73
2024/04/18 11:15:54;;;;;;;5.00;3.45;;;11.70;99.90;;;;;;5380862;26;20407;-73
2024/04/18 11:18:23;;;;;;;4.15;3.58;;;12.00;99.90;;;;;;5385542;26;20015;-74
2024/04/18 11:20:51;;;;;;;5.63;4.03;;;12.20;99.90;;;;;;5397339;26;20076;-74
2024/04/18 11:23:25;;;;;;;6.63;4.30;;;12.40;99.90;;;;;;5397985;26;20452;-74
2024/04/18 11:25:54;;;;;;;7.75;5.13;;;12.40;99.90;;;;;;5418165;26;20000;-73
2024/04/18 11:28:26;;;;;;;6.22;3.78;;;12.40;99.90;;;;;;5416256;26;20517;-73
2024/04/18 11:30:55;;;;;;;6.35;4.63;;;12.80;99.90;;;;;;5446067;26;19999;-73
2024/04/18 11:33:23;;;;;;;6.40;4.22;;;13.20;99.90;;;;;;5453491;26;20007;-74
2024/04/18 11:35:53;;;;;;;5.57;4.22;;;13.20;99.90;;;;;;5454518;26;20341;-73
2024/04/18 11:38:22;;;;;;;7.00;4.90;;;13.10;99.90;;;;;;5421718;26;20355;-73
2024/04/18 11:40:50;;;;;;;5.10;4.60;;;13.20;99.90;;;;;;5418976;26;19992;-73
2024/04/18 11:43:19;;;;;;;5.43;4.50;;;13.20;99.90;;;;;;5421005;26;20064;-74
2024/04/18 11:45:50;;;;;;;5.78;5.03;;;12.90;99.90;;;;;;5418168;26;19996;-74
2024/04/18 11:48:18;;;;;;;5.90;4.65;;;12.40;99.90;;;;;;5416228;26;20060;-74
2024/04/18 11:50:47;;;;;;;7.55;4.90;;;11.50;99.90;;;;;;5417500;26;20057;-74
2024/04/18 11:53:15;;;;;;;6.00;4.28;;;10.30;99.90;;;;;;5416559;26;20456;-73
2024/04/18 11:55:43;;;;;;;6.75;3.80;;;9.50;99.90;;;;;;5416573;26;20086;-73
2024/04/18 11:58:12;;;;;;;5.10;3.95;;;9.00;99.90;;;;;;5415422;26;20064;-73
2024/04/18 12:00:41;;;;;;;5.53;3.65;;;8.80;99.90;;;;;;5416182;26;20006;-74
2024/04/18 12:03:12;;;;;;;4.45;3.70;;;8.80;99.90;;;;;;5415721;26;20405;-74
2024/04/18 12:05:40;;;;;;;5.72;3.85;;;8.90;99.90;;;;;;5415290;26;20454;-75
2024/04/18 12:08:09;;;;;;;6.55;4.18;;;9.00;99.90;;;;;;5415966;26;20006;-74
2024/04/18 12:10:34;;;;;;;7.38;4.53;;;9.00;99.90;;;;;;5419049;26;19996;-73
2024/04/18 12:13:03;;;;;;;7.10;4.78;;;9.00;99.90;;;;;;5407716;26;20081;-74
2024/04/18 12:15:33;;;;;;;8.10;5.53;;;9.00;99.90;;;;;;5385914;26;20038;-73
2024/04/18 12:18:02;;;;;;;8.40;5.50;;;9.00;99.90;;;;;;5382425;26;20399;-74
2024/04/18 12:20:33;;;;;;;9.27;6.40;;;9.00;99.90;;;;;;5384392;26;20410;-73
2024/04/18 12:23:01;;;;;;;6.95;5.78;;;9.00;99.90;;;;;;5393384;26;20040;-73
2024/04/18 12:25:29;;;;;;;7.28;5.75;;;9.00;99.90;;;;;;5380395;26;19996;-74
2024/04/18 12:27:58;;;;;;;10.45;5.72;;;9.10;99.90;;;;;;5410893;26;20077;-74
2024/04/18 12:30:26;;;;;;;7.88;5.30;;;9.10;99.90;;;;;;5437855;26;20459;-73
2024/04/18 12:32:54;;;;;;;8.73;5.80;;;9.10;99.90;;;;;;5391793;26;20001;-75
2024/04/18 12:35:23;;;;;;;6.15;5.25;;;9.10;99.90;;;;;;5387216;26;20390;-74
2024/04/18 12:37:54;;;;;;;7.40;5.40;;;9.00;99.90;;;;;;5406967;26;20528;-74
2024/04/18 12:40:22;;;;;;;7.68;4.85;;;9.00;99.90;;;;;;5414935;26;19992;-75
2024/04/18 12:42:51;;;;;;;7.65;5.25;;;9.10;99.90;;;;;;5415159;26;20005;-75
2024/04/18 12:45:19;;;;;;;7.60;5.13;;;9.40;99.90;;;;;;5415332;26;20400;-73
2024/04/18 12:47:49;;;;;;;6.32;4.93;;;10.00;99.90;;;;;;5414967;26;20006;-74
2024/04/18 12:50:17;;;;;;;6.15;4.40;;;10.40;99.90;;;;;;5414789;26;20000;-73
2024/04/18 12:52:47;;;;;;;6.05;4.72;;;10.80;99.90;;;;;;5407197;26;20518;-74
2024/04/18 12:55:18;;;;;;;6.10;4.43;;;11.20;99.90;;;;;;5378965;26;19997;-74
2024/04/18 12:57:44;;;;;;;7.10;4.65;;;11.60;99.90;;;;;;5380531;26;20578;-74
2024/04/18 13:00:14;;;;;;;6.60;4.30;;;11.80;99.90;;;;;;5382844;26;20024;-73
2024/04/18 13:02:42;;;;;;;6.40;4.40;;;12.00;99.90;;;;;;5382924;26;19996;-73